»·PEaware :: N34HP KIFP-KSAN

N34HP :: KIFP-KSAN

FLIGHT INFORMATION

Flight Status: Arrived
Operator: Privately registered:
United States
More flights under this callsign
Pilot: Ryan B. (8502)
Aircraft: BOEING 727-200
(B722)
More flights by this aircraft type
Origin: KIFP Laughlin/Bullhead Intl
United States
Destination: KSAN San Diego Intl-Lindbergh
United States
More flights between these airports :: More routes between these airports
Route: +EED BARET5
File this flight plan on PilotEdge
Remarks: RMK / POWERED BY SIMBRIEF
Altitude:
(Current/Filed)
32,000ft
Speed:
(Current/Filed)
487kts
Departed: 18-Sep-17 05:07 PM
Arrived: 18-Sep-17 05:54 PM
Distance/Time
Traveled:
195nm/0:47
Distance/Time
To Go:
Arrived

Flight Plot

Page will automatically refresh every two minutes.

Flight plan parsing failed; only flown route is shown


Map Options




Map Legend


Flown Route
Filed Route
Departure Airport
Arrival Airport
Navaid (VOR, NDB)
Fix

Horizontal Profiles

Position Reports

Time Latitude Longitude Heading Altitude Ground
Speed
18-Sep-17 16:47 35.159755 -114.556365 266 687ft 0kts
18-Sep-17 16:48 35.159755 -114.556365 266 687ft 0kts
18-Sep-17 16:49 35.159755 -114.556365 266 687ft 0kts
18-Sep-17 16:50 35.159755 -114.556365 266 687ft 0kts
18-Sep-17 16:51 35.159755 -114.556365 266 687ft 0kts
18-Sep-17 16:52 35.159755 -114.556365 266 687ft 0kts
18-Sep-17 16:53 35.159755 -114.556365 266 687ft 0kts
18-Sep-17 16:54 35.159755 -114.556365 266 687ft 0kts
18-Sep-17 16:55 35.159755 -114.556365 266 687ft 0kts
18-Sep-17 16:56 35.159755 -114.556365 266 687ft 0kts
18-Sep-17 16:57 35.159755 -114.556365 266 687ft 0kts
18-Sep-17 16:58 35.159755 -114.556365 266 687ft 0kts
18-Sep-17 16:59 35.159755 -114.556365 266 687ft 0kts
18-Sep-17 17:00 35.159755 -114.556365 266 687ft 0kts
18-Sep-17 17:01 35.159753 -114.556396 266 687ft 0kts
18-Sep-17 17:02 35.159720 -114.556938 263 682ft 0kts
18-Sep-17 17:03 35.159720 -114.556938 263 682ft 0kts
18-Sep-17 17:04 35.159720 -114.556938 263 682ft 0kts
18-Sep-17 17:05 35.159720 -114.556938 263 682ft 0kts
18-Sep-17 17:06 35.159629 -114.557188 244 680ft 0kts
18-Sep-17 17:07 35.162440 -114.558547 358 660ft 27kts
18-Sep-17 17:08 35.166099 -114.558927 323 647ft 0kts
18-Sep-17 17:09 35.166225 -114.559526 265 641ft 0kts
18-Sep-17 17:10 35.165911 -114.560169 174 635ft 0kts
18-Sep-17 17:11 35.158045 -114.559590 175 678ft 123kts
18-Sep-17 17:12 35.110472 -114.556971 182 3323ft 217kts
18-Sep-17 17:13 35.047981 -114.554363 174 6418ft 255kts
18-Sep-17 17:14 34.970301 -114.537454 170 5862ft 302kts
18-Sep-17 17:15 34.891031 -114.506892 155 6855ft 310kts
18-Sep-17 17:16 34.813810 -114.480687 169 12477ft 297kts
18-Sep-17 17:17 34.730085 -114.470847 202 15843ft 336kts
18-Sep-17 17:18 34.655179 -114.552991 230 18504ft 377kts
18-Sep-17 17:19 34.588590 -114.653162 230 21839ft 390kts
18-Sep-17 17:20 34.514474 -114.752483 228 24380ft 408kts
18-Sep-17 17:21 34.432784 -114.850771 224 26853ft 423kts
18-Sep-17 17:22 34.345884 -114.949013 224 28751ft 436kts
18-Sep-17 17:23 34.255420 -115.050532 224 29872ft 461kts
18-Sep-17 17:24 34.157522 -115.159936 224 29865ft 498kts
18-Sep-17 17:25 34.053411 -115.275861 224 29873ft 517kts
18-Sep-17 17:26 33.965226 -115.373740 224 29859ft 517kts
18-Sep-17 17:27 33.859233 -115.489959 224 29804ft 514kts
18-Sep-17 17:28 33.759834 -115.598978 225 29762ft 456kts
18-Sep-17 17:29 33.655095 -115.714382 224 27566ft 437kts
18-Sep-17 17:30 33.633706 -115.738042 224 27118ft 433kts
18-Sep-17 17:31 33.586522 -115.797406 230 25935ft 424kts
18-Sep-17 17:32 33.555800 -115.840730 231 25139ft 420kts
18-Sep-17 17:33 33.500592 -115.932378 237 23793ft 405kts
18-Sep-17 17:34 33.446739 -116.036569 240 23819ft 439kts
18-Sep-17 17:35 33.398467 -116.141068 253 23794ft 462kts
18-Sep-17 17:36 33.331001 -116.263556 232 23886ft 479kts
18-Sep-17 17:37 33.259407 -116.380849 236 23662ft 390kts
18-Sep-17 17:38 33.200069 -116.483422 236 16709ft 373kts
18-Sep-17 17:39 33.141502 -116.584248 235 14855ft 359kts
18-Sep-17 17:40 33.059249 -116.622711 178 13467ft 332kts
18-Sep-17 17:41 32.969555 -116.634762 191 12838ft 314kts
18-Sep-17 17:42 32.888405 -116.650073 190 11832ft 292kts
18-Sep-17 17:43 32.809236 -116.664937 190 10911ft 287kts
18-Sep-17 17:44 32.730816 -116.679243 190 9972ft 284kts
18-Sep-17 17:45 32.674644 -116.722079 248 9620ft 224kts
18-Sep-17 17:46 32.655128 -116.786725 249 9006ft 201kts
18-Sep-17 17:47 32.617363 -116.823451 165 6801ft 210kts
18-Sep-17 17:48 32.615442 -116.768146 20 5669ft 215kts
18-Sep-17 17:49 32.645547 -116.805655 261 5213ft 196kts
18-Sep-17 17:50 32.649384 -116.844754 284 5002ft 190kts
18-Sep-17 17:51 32.661820 -116.895631 285 5012ft 165kts
18-Sep-17 17:52 32.674248 -116.946443 285 3970ft 166kts
18-Sep-17 17:53 32.686963 -116.998288 285 2783ft 162kts
18-Sep-17 17:54 32.699443 -117.049418 285 2694ft 157kts
18-Sep-17 17:55 32.709479 -117.091311 285 2216ft 144kts
18-Sep-17 17:56 32.720573 -117.136748 286 1307ft 142kts
18-Sep-17 17:57 32.730978 -117.179149 286 56ft 127kts
18-Sep-17 17:58 32.733631 -117.194274 106 25ft 13kts
18-Sep-17 17:59 32.733449 -117.193466 105 25ft 1kts
18-Sep-17 18:00 32.733191 -117.191916 70 25ft 0kts
18-Sep-17 18:01 32.734419 -117.188389 105 25ft 22kts
18-Sep-17 18:02 32.732165 -117.179110 106 28ft 28kts
18-Sep-17 18:03 32.732317 -117.176914 32 29ft 0kts

Navigation Log

Ident Type
Flight plan parsing failed, navigation log unavailable